Time,TemperatureF,DewpointF,PressureIn,WindDirection,WindDirectionDegrees,WindSpeedMPH,WindSpeedGustMPH,Humidity,HourlyPrecipIn,Conditions,Clouds,dailyrainin,SoftwareType,DateUTC
2013-06-28 00:01:00,69.8,68.9,29.65,ESE,106,16.1,16.1,97,0.00,RA,,0.00,WeatherDisplay:10.37,2013-06-28 04:01:00,
2013-06-28 00:02:00,69.8,68.9,29.65,ESE,103,15.0,15.0,97,0.00,RA,,0.00,WeatherDisplay:10.37,2013-06-28 04:02:00,
2013-06-28 00:07:00,70.2,69.3,29.64,ESE,119,18.4,18.4,97,0.00,RA,,0.00,WeatherDisplay:10.37,2013-06-28 04:07:00,
2013-06-28 00:12:00,70.1,69.2,29.64,SE,130,20.7,20.7,97,0.20,OVC,,0.00,WeatherDisplay:10.37,2013-06-28 04:12:00,
2013-06-28 00:18:00,69.9,69.0,29.64,SE,125,21.9,21.9,97,0.17,OVC,,0.00,WeatherDisplay:10.37,2013-06-28 04:18:00,
2013-06-28 00:23:00,69.9,69.0,29.64,ESE,113,19.6,19.6,97,0.15,OVC,,0.00,WeatherDisplay:10.37,2013-06-28 04:23:00,
2013-06-28 00:28:00,69.7,68.8,29.64,ESE,111,16.1,16.1,97,0.14,OVC,,0.00,WeatherDisplay:10.37,2013-06-28 04:28:00,
2013-06-28 00:33:00,69.7,68.8,29.63,ESE,118,18.4,18.4,97,0.12,OVC,,0.00,WeatherDisplay:10.37,2013-06-28 04:33:00,
2013-06-28 00:39:00,69.9,69.0,29.63,ESE,121,15.0,15.0,97,0.09,OVC,,0.00,WeatherDisplay:10.37,2013-06-28 04:39:00,
2013-06-28 00:44:00,69.9,69.0,29.63,ESE,120,16.1,16.1,97,0.08,OVC,,0.00,WeatherDisplay:10.37,2013-06-28 04:44:00,
2013-06-28 00:49:00,70.0,69.1,29.63,SE,126,15.0,15.0,97,0.00,OVC,,0.00,WeatherDisplay:10.37,2013-06-28 04:49:00,
2013-06-28 00:54:00,70.2,69.3,29.63,ESE,121,15.0,15.0,97,0.00,OVC,,0.00,WeatherDisplay:10.37,2013-06-28 04:54:00,
2013-06-28 00:59:00,70.5,69.9,29.62,ESE,119,15.0,15.0,98,0.00,OVC,,0.00,WeatherDisplay:10.37,2013-06-28 04:59:00,
2013-06-28 01:04:00,70.5,69.9,29.62,SE,129,16.1,16.1,98,0.00,-RA,,0.00,WeatherDisplay:10.37,2013-06-28 05:04:00,
2013-06-28 01:09:00,70.8,70.2,29.62,SE,128,16.1,16.1,98,0.00,-RA,,0.00,WeatherDisplay:10.37,2013-06-28 05:09:00,
2013-06-28 01:14:00,71.2,70.6,29.61,SE,126,13.8,13.8,98,0.00,-RA,,0.00,WeatherDisplay:10.37,2013-06-28 05:14:00,
2013-06-28 01:20:00,71.5,70.9,29.61,SSE,148,15.0,15.0,98,0.00,-RA,,0.00,WeatherDisplay:10.37,2013-06-28 05:20:00,
2013-06-28 01:25:00,71.7,71.1,29.61,SE,136,17.3,17.3,98,0.00,-RA,,0.00,WeatherDisplay:10.37,2013-06-28 05:25:00,
2013-06-28 01:30:00,71.8,71.2,29.61,SE,134,13.0,17.0,98,0.00,-RA,,0.00,WeatherDisplay:10.37,2013-06-28 05:30:00,
2013-06-28 01:35:00,71.9,71.3,29.60,SSE,147,11.0,11.0,98,0.00,-RA,,0.00,WeatherDisplay:10.37,2013-06-28 05:35:00,
2013-06-28 01:40:00,72.0,71.1,29.60,SSE,165,11.5,11.5,97,0.00,-RA,,0.00,WeatherDisplay:10.37,2013-06-28 05:40:00,
2013-06-28 01:45:00,72.1,71.2,29.60,SE,145,12.7,12.7,97,0.00,-RA,,0.00,WeatherDisplay:10.37,2013-06-28 05:45:00,
2013-06-28 01:50:00,72.3,71.4,29.60,SSE,156,12.7,12.7,97,0.00,-RA,,0.00,WeatherDisplay:10.37,2013-06-28 05:50:00,
2013-06-28 01:55:00,72.6,71.7,29.59,SSE,150,13.8,13.8,97,0.00,-RA,,0.00,WeatherDisplay:10.37,2013-06-28 05:55:00,
2013-06-28 02:00:00,72.7,71.8,29.59,SSE,152,13.8,13.8,97,0.00,BKN,,0.00,WeatherDisplay:10.37,2013-06-28 06:00:00,
2013-06-28 02:05:00,72.7,71.8,29.59,South,169,13.0,13.0,97,0.00,BKN,,0.00,WeatherDisplay:10.37,2013-06-28 06:05:00,
2013-06-28 02:11:00,72.7,71.8,29.59,South,171,11.5,11.5,97,0.00,BKN,,0.00,WeatherDisplay:10.37,2013-06-28 06:11:00,
2013-06-28 02:16:00,72.8,71.9,29.58,SSE,148,18.4,18.4,97,0.00,BKN,,0.00,WeatherDisplay:10.37,2013-06-28 06:16:00,
2013-06-28 02:21:00,72.8,71.9,29.59,South,184,19.6,19.6,97,0.00,BKN,,0.00,WeatherDisplay:10.37,2013-06-28 06:21:00,
2013-06-28 02:26:00,72.7,71.5,29.58,SSE,167,13.8,13.8,96,0.00,BKN,,0.00,WeatherDisplay:10.37,2013-06-28 06:26:00,
2013-06-28 02:31:00,72.7,71.5,29.58,South,182,15.0,15.0,96,0.00,BKN,,0.00,WeatherDisplay:10.37,2013-06-28 06:31:00,
2013-06-28 02:36:00,72.6,71.4,29.58,SSW,193,16.1,16.1,96,0.00,BKN,,0.00,WeatherDisplay:10.37,2013-06-28 06:36:00,
2013-06-28 02:42:00,72.5,71.3,29.58,South,184,13.8,13.8,96,0.00,BKN,,0.00,WeatherDisplay:10.37,2013-06-28 06:42:00,
2013-06-28 02:47:00,72.4,71.2,29.58,South,182,17.3,17.3,96,0.00,BKN,,0.00,WeatherDisplay:10.37,2013-06-28 06:47:00,
2013-06-28 02:52:00,72.4,71.2,29.58,SSW,196,13.8,13.8,96,0.00,BKN,,0.00,WeatherDisplay:10.37,2013-06-28 06:52:00,
2013-06-28 02:57:00,72.3,71.1,29.58,SSW,194,8.1,8.1,96,0.00,BKN,,0.00,WeatherDisplay:10.37,2013-06-28 06:57:00,
2013-06-28 03:02:00,72.2,71.0,29.58,SW,228,11.5,11.5,96,0.00,OVC,,0.00,WeatherDisplay:10.37,2013-06-28 07:02:00,
2013-06-28 03:07:00,72.2,71.0,29.58,South,177,13.8,13.8,96,0.00,OVC,,0.00,WeatherDisplay:10.37,2013-06-28 07:07:00,
2013-06-28 03:12:00,72.2,71.0,29.58,South,173,13.8,13.8,96,0.00,OVC,,0.00,WeatherDisplay:10.37,2013-06-28 07:12:00,
2013-06-28 03:18:00,72.3,71.1,29.57,South,173,11.5,11.5,96,0.00,OVC,,0.00,WeatherDisplay:10.37,2013-06-28 07:18:00,
2013-06-28 03:23:00,72.3,71.1,29.57,SSE,162,11.5,11.5,96,0.00,OVC,,0.00,WeatherDisplay:10.37,2013-06-28 07:23:00,
2013-06-28 03:28:00,72.3,71.1,29.57,SSE,162,11.5,11.5,96,0.00,OVC,,0.00,WeatherDisplay:10.37,2013-06-28 07:28:00,
2013-06-28 03:33:00,72.3,71.1,29.57,SSE,167,11.5,11.5,96,0.00,OVC,,0.00,WeatherDisplay:10.37,2013-06-28 07:33:00,
2013-06-28 03:38:00,72.4,71.2,29.56,South,170,9.2,9.2,96,0.00,OVC,,0.00,WeatherDisplay:10.37,2013-06-28 07:38:00,
2013-06-28 03:44:00,72.3,71.1,29.57,South,170,11.5,11.5,96,0.00,OVC,,0.00,WeatherDisplay:10.37,2013-06-28 07:44:00,
2013-06-28 03:49:00,72.3,71.1,29.56,SSE,158,10.4,10.4,96,0.00,OVC,,0.00,WeatherDisplay:10.37,2013-06-28 07:49:00,
2013-06-28 03:54:00,72.3,71.1,29.56,SSE,162,12.7,12.7,96,0.00,OVC,,0.00,WeatherDisplay:10.37,2013-06-28 07:54:00,
2013-06-28 03:59:00,72.4,71.2,29.56,SSE,153,13.0,13.0,96,0.00,OVC,,0.00,WeatherDisplay:10.37,2013-06-28 07:59:00,
2013-06-28 04:04:00,72.4,71.2,29.56,SSE,165,11.5,11.5,96,0.00,OVC,,0.00,WeatherDisplay:10.37,2013-06-28 08:04:00,
2013-06-28 04:09:00,72.3,71.1,29.56,SSW,195,11.5,11.5,96,0.00,OVC,,0.00,WeatherDisplay:10.37,2013-06-28 08:09:00,
2013-06-28 04:15:00,72.3,71.1,29.56,SSE,167,11.5,11.5,96,0.00,OVC,,0.00,WeatherDisplay:10.37,2013-06-28 08:15:00,
2013-06-28 04:20:00,72.2,71.0,29.56,SSE,153,11.5,11.5,96,0.00,OVC,,0.00,WeatherDisplay:10.37,2013-06-28 08:20:00,
2013-06-28 04:25:00,72.3,71.1,29.55,SSE,152,11.0,11.0,96,0.00,OVC,,0.00,WeatherDisplay:10.37,2013-06-28 08:25:00,
2013-06-28 04:30:00,72.2,71.0,29.56,SSE,153,13.8,13.8,96,0.00,OVC,,0.00,WeatherDisplay:10.37,2013-06-28 08:30:00,
2013-06-28 04:35:00,72.3,71.1,29.55,SSE,167,11.5,11.5,96,0.00,OVC,,0.00,WeatherDisplay:10.37,2013-06-28 08:35:00,
2013-06-28 04:41:00,72.2,71.0,29.55,South,178,12.7,12.7,96,0.00,OVC,,0.00,WeatherDisplay:10.37,2013-06-28 08:41:00,
2013-06-28 04:46:00,72.1,70.9,29.55,South,182,13.8,13.8,96,0.00,OVC,,0.00,WeatherDisplay:10.37,2013-06-28 08:46:00,
2013-06-28 04:51:00,71.9,70.7,29.56,SSE,165,12.7,12.7,96,0.00,OVC,,0.00,WeatherDisplay:10.37,2013-06-28 08:51:00,
2013-06-28 04:56:00,72.0,70.8,29.55,South,169,11.5,11.5,96,0.00,OVC,,0.00,WeatherDisplay:10.37,2013-06-28 08:56:00,
2013-06-28 05:01:00,72.0,70.8,29.56,South,169,11.5,11.5,96,0.00,SCT,,0.00,WeatherDisplay:10.37,2013-06-28 09:01:00,
2013-06-28 05:06:00,71.9,70.7,29.55,SSE,155,11.0,11.0,96,0.00,SCT,,0.00,WeatherDisplay:10.37,2013-06-28 09:06:00,
2013-06-28 05:12:00,71.9,70.7,29.55,SSE,166,13.8,13.8,96,0.00,SCT,,0.00,WeatherDisplay:10.37,2013-06-28 09:12:00,
2013-06-28 05:17:00,71.9,70.7,29.55,SSE,167,13.8,13.8,96,0.00,SCT,,0.00,WeatherDisplay:10.37,2013-06-28 09:17:00,
2013-06-28 05:22:00,71.8,70.6,29.55,South,182,16.1,16.1,96,0.00,SCT,,0.00,WeatherDisplay:10.37,2013-06-28 09:22:00,
2013-06-28 05:27:00,71.7,70.5,29.55,SSE,153,12.7,12.7,96,0.00,SCT,,0.00,WeatherDisplay:10.37,2013-06-28 09:27:00,
2013-06-28 05:32:00,71.7,70.5,29.55,SSE,164,13.8,13.8,96,0.00,SCT,,0.00,WeatherDisplay:10.37,2013-06-28 09:32:00,
2013-06-28 05:37:00,71.7,70.5,29.55,South,177,9.2,9.2,96,0.00,SCT,,0.00,WeatherDisplay:10.37,2013-06-28 09:37:00,
2013-06-28 05:42:00,71.7,70.5,29.55,South,180,11.5,11.5,96,0.00,SCT,,0.00,WeatherDisplay:10.37,2013-06-28 09:42:00,
2013-06-28 05:48:00,71.8,70.6,29.55,South,169,10.4,10.4,96,0.00,SCT,,0.00,WeatherDisplay:10.37,2013-06-28 09:48:00,
2013-06-28 05:53:00,71.9,70.7,29.55,South,172,11.5,11.5,96,0.00,SCT,,0.00,WeatherDisplay:10.37,2013-06-28 09:53:00,
2013-06-28 05:58:00,72.0,70.8,29.54,South,169,11.5,11.5,96,0.00,SCT,,0.00,WeatherDisplay:10.37,2013-06-28 09:58:00,
2013-06-28 06:03:00,72.0,70.8,29.54,South,184,9.2,9.2,96,0.00,OVC,,0.00,WeatherDisplay:10.37,2013-06-28 10:03:00,
2013-06-28 06:08:00,72.1,70.9,29.54,South,171,9.2,9.2,96,0.00,OVC,,0.00,WeatherDisplay:10.37,2013-06-28 10:08:00,
2013-06-28 06:13:00,72.1,70.9,29.54,South,178,10.4,10.4,96,0.00,OVC,,0.00,WeatherDisplay:10.37,2013-06-28 10:13:00,
2013-06-28 06:18:00,72.1,70.9,29.54,SSE,159,9.2,9.2,96,0.00,OVC,,0.00,WeatherDisplay:10.37,2013-06-28 10:18:00,
2013-06-28 06:24:00,72.1,70.9,29.54,SSE,166,11.5,11.5,96,0.00,OVC,,0.00,WeatherDisplay:10.37,2013-06-28 10:24:00,
2013-06-28 06:29:00,72.2,71.0,29.54,SSE,167,10.4,10.4,96,0.00,OVC,,0.00,WeatherDisplay:10.37,2013-06-28 10:29:00,
2013-06-28 06:34:00,72.2,71.0,29.54,South,171,12.7,12.7,96,0.00,OVC,,0.00,WeatherDisplay:10.37,2013-06-28 10:34:00,
2013-06-28 06:39:00,72.2,71.0,29.54,South,179,10.4,10.4,96,0.00,OVC,,0.00,WeatherDisplay:10.37,2013-06-28 10:39:00,
2013-06-28 06:44:00,72.2,71.0,29.54,SSW,208,12.7,12.7,96,0.00,OVC,,0.00,WeatherDisplay:10.37,2013-06-28 10:44:00,
2013-06-28 06:50:00,72.3,71.1,29.54,South,171,11.5,11.5,96,0.00,OVC,,0.00,WeatherDisplay:10.37,2013-06-28 10:50:00,
2013-06-28 06:55:00,72.2,71.0,29.54,SSW,196,9.2,9.2,96,0.00,OVC,,0.00,WeatherDisplay:10.37,2013-06-28 10:55:00,
2013-06-28 07:00:00,72.3,71.1,29.54,South,180,15.0,15.0,96,0.00,OVC,,0.00,WeatherDisplay:10.37,2013-06-28 11:00:00,
2013-06-28 07:05:00,72.3,71.1,29.55,South,184,10.0,10.0,96,0.00,BKN,,0.00,WeatherDisplay:10.37,2013-06-28 11:05:00,
2013-06-28 07:10:00,72.3,71.1,29.54,SSW,202,11.5,11.5,96,0.00,BKN,,0.00,WeatherDisplay:10.37,2013-06-28 11:10:00,
2013-06-28 07:16:00,72.3,71.1,29.55,South,187,6.9,6.9,96,0.00,BKN,,0.00,WeatherDisplay:10.37,2013-06-28 11:16:00,
2013-06-28 07:21:00,72.4,71.2,29.55,South,185,11.5,11.5,96,0.00,BKN,,0.00,WeatherDisplay:10.37,2013-06-28 11:21:00,
2013-06-28 07:26:00,72.4,71.2,29.55,South,174,12.7,12.7,96,0.00,BKN,,0.00,WeatherDisplay:10.37,2013-06-28 11:26:00,
2013-06-28 07:31:00,72.4,71.2,29.55,South,178,16.1,16.1,96,0.00,BKN,,0.00,WeatherDisplay:10.37,2013-06-28 11:31:00,
2013-06-28 07:36:00,72.4,71.2,29.55,South,181,9.2,9.2,96,0.00,BKN,,0.00,WeatherDisplay:10.37,2013-06-28 11:36:00,
2013-06-28 07:41:00,72.4,71.2,29.55,South,182,11.5,11.5,96,0.00,BKN,,0.00,WeatherDisplay:10.37,2013-06-28 11:41:00,
2013-06-28 07:46:00,72.4,71.2,29.55,South,177,9.2,9.2,96,0.00,BKN,,0.00,WeatherDisplay:10.37,2013-06-28 11:46:00,
2013-06-28 07:51:00,72.5,71.3,29.55,SW,228,10.0,10.0,96,0.00,BKN,,0.00,WeatherDisplay:10.37,2013-06-28 11:51:00,
2013-06-28 07:57:00,72.5,71.3,29.55,South,186,8.1,8.1,96,0.00,BKN,,0.00,WeatherDisplay:10.37,2013-06-28 11:57:00,
2013-06-28 08:02:00,72.6,71.4,29.55,SSW,196,11.5,11.5,96,0.00,OVC,,0.00,WeatherDisplay:10.37,2013-06-28 12:02:00,
2013-06-28 08:07:00,72.7,71.2,29.55,SW,216,15.0,15.0,95,0.00,OVC,,0.00,WeatherDisplay:10.37,2013-06-28 12:07:00,
2013-06-28 08:12:00,72.7,71.2,29.55,South,182,13.8,13.8,95,0.01,RA,,0.01,WeatherDisplay:10.37,2013-06-28 12:12:00,
2013-06-28 08:17:00,72.7,71.2,29.55,South,176,11.5,11.5,95,0.01,RA,,0.01,WeatherDisplay:10.37,2013-06-28 12:17:00,
2013-06-28 08:23:00,72.8,71.3,29.55,South,184,11.5,11.5,95,0.01,OVC,,0.01,WeatherDisplay:10.37,2013-06-28 12:23:00,
2013-06-28 08:28:00,72.9,71.4,29.54,SW,215,9.0,9.0,95,0.01,OVC,,0.01,WeatherDisplay:10.37,2013-06-28 12:28:00,
2013-06-28 08:33:00,73.0,71.5,29.54,South,180,12.0,12.0,95,0.01,OVC,,0.01,WeatherDisplay:10.37,2013-06-28 12:33:00,
2013-06-28 08:38:00,73.1,71.6,29.54,South,182,8.1,8.1,95,0.01,OVC,,0.01,WeatherDisplay:10.37,2013-06-28 12:38:00,
2013-06-28 08:44:00,73.1,71.6,29.54,South,190,11.5,11.5,95,0.01,OVC,,0.01,WeatherDisplay:10.37,2013-06-28 12:44:00,
2013-06-28 08:49:00,73.2,71.7,29.54,SSE,168,8.1,8.1,95,0.01,OVC,,0.01,WeatherDisplay:10.37,2013-06-28 12:49:00,
2013-06-28 08:54:00,73.4,71.9,29.53,South,190,8.1,8.1,95,0.01,OVC,,0.01,WeatherDisplay:10.37,2013-06-28 12:54:00,
2013-06-28 08:59:00,73.5,71.7,29.53,South,190,11.5,11.5,94,0.01,OVC,,0.01,WeatherDisplay:10.37,2013-06-28 12:59:00,
2013-06-28 09:04:00,73.8,72.0,29.53,South,173,10.4,10.4,94,0.01,OVC,,0.01,WeatherDisplay:10.37,2013-06-28 13:04:00,
2013-06-28 09:09:00,74.1,72.3,29.53,SSE,167,9.2,9.2,94,0.00,OVC,,0.01,WeatherDisplay:10.37,2013-06-28 13:09:00,
2013-06-28 09:15:00,74.4,72.2,29.52,SSW,192,9.2,9.2,93,0.00,OVC,,0.01,WeatherDisplay:10.37,2013-06-28 13:15:00,
2013-06-28 09:20:00,74.8,72.6,29.53,SSW,193,10.4,10.4,93,0.00,OVC,,0.01,WeatherDisplay:10.37,2013-06-28 13:20:00,
2013-06-28 09:25:00,75.1,72.6,29.52,SSW,193,11.5,11.5,92,0.00,OVC,,0.01,WeatherDisplay:10.37,2013-06-28 13:25:00,
2013-06-28 09:30:00,75.3,72.5,29.52,SSW,192,9.2,9.2,91,0.00,OVC,,0.01,WeatherDisplay:10.37,2013-06-28 13:30:00,
2013-06-28 09:35:00,75.6,72.8,29.52,SW,218,13.8,13.8,91,0.00,OVC,,0.01,WeatherDisplay:10.37,2013-06-28 13:35:00,
2013-06-28 09:40:00,75.8,73.0,29.51,South,187,15.0,15.0,91,0.00,OVC,,0.01,WeatherDisplay:10.37,2013-06-28 13:40:00,
2013-06-28 09:45:00,76.1,73.0,29.51,SW,221,10.4,10.4,90,0.00,OVC,,0.01,WeatherDisplay:10.37,2013-06-28 13:45:00,
2013-06-28 09:50:00,76.5,73.3,29.51,South,182,12.0,12.0,90,0.00,OVC,,0.01,WeatherDisplay:10.37,2013-06-28 13:50:00,
2013-06-28 09:56:00,76.6,73.1,29.51,South,170,13.8,13.8,89,0.00,OVC,,0.01,WeatherDisplay:10.37,2013-06-28 13:56:00,
2013-06-28 10:01:00,76.6,73.1,29.51,SSE,166,11.5,11.5,89,0.00,SCT,,0.01,WeatherDisplay:10.37,2013-06-28 14:01:00,
2013-06-28 10:06:00,76.6,73.1,29.51,South,179,12.0,12.0,89,0.00,SCT,,0.01,WeatherDisplay:10.37,2013-06-28 14:06:00,
2013-06-28 10:11:00,76.9,73.4,29.51,SSE,148,10.4,10.4,89,0.00,SCT,,0.01,WeatherDisplay:10.37,2013-06-28 14:11:00,
2013-06-28 10:16:00,77.1,73.3,29.51,South,190,11.0,11.0,88,0.00,SCT,,0.01,WeatherDisplay:10.37,2013-06-28 14:16:00,
2013-06-28 10:21:00,77.3,73.1,29.51,SSW,211,12.0,12.0,87,0.00,SCT,,0.01,WeatherDisplay:10.37,2013-06-28 14:21:00,
2013-06-28 10:27:00,77.5,73.3,29.51,South,171,12.7,12.7,87,0.00,SCT,,0.01,WeatherDisplay:10.37,2013-06-28 14:27:00,
2013-06-28 10:32:00,77.6,73.1,29.51,South,175,9.2,9.2,86,0.00,SCT,,0.01,WeatherDisplay:10.37,2013-06-28 14:32:00,
2013-06-28 10:37:00,77.6,73.1,29.51,South,171,11.5,11.5,86,0.00,SCT,,0.01,WeatherDisplay:10.37,2013-06-28 14:37:00,
2013-06-28 10:42:00,77.6,73.1,29.51,SSE,164,10.4,10.4,86,0.00,SCT,,0.01,WeatherDisplay:10.37,2013-06-28 14:42:00,
2013-06-28 10:47:00,77.7,73.2,29.51,SSE,160,15.0,15.0,86,0.00,SCT,,0.01,WeatherDisplay:10.37,2013-06-28 14:47:00,
2013-06-28 10:52:00,77.6,73.4,29.51,South,183,11.5,11.5,87,0.00,SCT,,0.01,WeatherDisplay:10.37,2013-06-28 14:52:00,
2013-06-28 10:57:00,77.5,73.0,29.51,SSE,151,15.0,15.0,86,0.00,SCT,,0.01,WeatherDisplay:10.37,2013-06-28 14:57:00,
2013-06-28 11:02:00,77.7,73.5,29.51,SW,215,11.5,11.5,87,0.00,SCT,,0.01,WeatherDisplay:10.37,2013-06-28 15:02:00,
2013-06-28 11:07:00,78.1,73.6,29.51,SSE,164,11.5,11.5,86,0.00,SCT,,0.01,WeatherDisplay:10.37,2013-06-28 15:07:00,
2013-06-28 11:12:00,78.1,73.2,29.51,South,170,9.2,9.6,85,0.00,SCT,,0.01,WeatherDisplay:10.37,2013-06-28 15:12:00,
2013-06-28 11:18:00,78.4,73.2,29.51,SSW,213,14.0,14.0,84,0.00,SCT,,0.01,WeatherDisplay:10.37,2013-06-28 15:18:00,
2013-06-28 11:23:00,78.3,73.1,29.51,South,188,10.4,10.4,84,0.00,SCT,,0.01,WeatherDisplay:10.37,2013-06-28 15:23:00,
2013-06-28 11:28:00,78.3,73.1,29.52,SSE,167,13.8,13.8,84,0.00,SCT,,0.01,WeatherDisplay:10.37,2013-06-28 15:28:00,
2013-06-28 11:33:00,77.9,72.7,29.52,SSE,153,18.4,18.4,84,0.00,SCT,,0.01,WeatherDisplay:10.37,2013-06-28 15:33:00,
2013-06-28 11:38:00,77.9,73.0,29.52,SSE,163,9.0,9.0,85,0.00,SCT,,0.01,WeatherDisplay:10.37,2013-06-28 15:38:00,
2013-06-28 11:43:00,78.4,73.5,29.52,South,177,10.4,10.4,85,0.00,SCT,,0.01,WeatherDisplay:10.37,2013-06-28 15:43:00,
2013-06-28 11:48:00,78.3,73.1,29.52,SSE,155,16.1,16.1,84,0.00,SCT,,0.01,WeatherDisplay:10.37,2013-06-28 15:48:00,
2013-06-28 11:54:00,78.4,72.8,29.52,SSW,209,11.5,11.5,83,0.00,SCT,,0.01,WeatherDisplay:10.37,2013-06-28 15:54:00,
2013-06-28 11:59:00,78.9,72.9,29.52,SE,142,12.7,12.7,82,0.00,SCT,,0.01,WeatherDisplay:10.37,2013-06-28 15:59:00,
2013-06-28 12:04:00,77.8,72.9,29.52,South,173,13.8,13.8,85,0.00,SCT,,0.01,WeatherDisplay:10.37,2013-06-28 16:04:00,
2013-06-28 12:09:00,77.8,73.3,29.52,SSW,212,12.0,12.0,86,0.00,SCT,,0.01,WeatherDisplay:10.37,2013-06-28 16:09:00,
2013-06-28 12:14:00,78.1,73.6,29.52,South,170,10.4,10.4,86,0.00,SCT,,0.01,WeatherDisplay:10.37,2013-06-28 16:14:00,
2013-06-28 12:20:00,77.8,73.3,29.51,SSE,157,14.0,14.0,86,0.00,SCT,,0.01,WeatherDisplay:10.37,2013-06-28 16:20:00,
2013-06-28 12:25:00,77.9,73.7,29.51,South,177,11.5,11.5,87,0.00,SCT,,0.01,WeatherDisplay:10.37,2013-06-28 16:25:00,
2013-06-28 12:30:00,77.6,73.4,29.51,South,174,16.1,16.1,87,0.00,SCT,,0.01,WeatherDisplay:10.37,2013-06-28 16:30:00,
2013-06-28 12:35:00,78.2,73.7,29.51,South,169,12.7,12.7,86,0.00,SCT,,0.01,WeatherDisplay:10.37,2013-06-28 16:35:00,
2013-06-28 12:41:00,78.0,73.1,29.51,South,184,18.4,18.4,85,0.00,SCT,,0.01,WeatherDisplay:10.37,2013-06-28 16:41:00,
2013-06-28 12:46:00,77.8,72.6,29.52,South,176,21.9,21.9,84,0.00,SCT,,0.01,WeatherDisplay:10.37,2013-06-28 16:46:00,
2013-06-28 12:51:00,78.0,72.8,29.52,South,184,17.3,17.3,84,0.00,SCT,,0.01,WeatherDisplay:10.37,2013-06-28 16:51:00,
2013-06-28 12:56:00,78.2,72.6,29.51,SSE,157,18.4,18.4,83,0.00,SCT,,0.01,WeatherDisplay:10.37,2013-06-28 16:56:00,
2013-06-28 13:01:00,77.9,72.7,29.51,SSE,167,18.4,18.4,84,0.00,BKN,,0.01,WeatherDisplay:10.37,2013-06-28 17:01:00,
2013-06-28 13:06:00,77.9,72.7,29.52,South,185,24.2,24.2,84,0.00,BKN,,0.01,WeatherDisplay:10.37,2013-06-28 17:06:00,
2013-06-28 13:11:00,78.0,72.8,29.51,South,169,14.0,14.0,84,0.00,BKN,,0.01,WeatherDisplay:10.37,2013-06-28 17:11:00,
2013-06-28 13:16:00,78.4,72.8,29.52,South,171,18.4,18.4,83,0.00,BKN,,0.01,WeatherDisplay:10.37,2013-06-28 17:16:00,
2013-06-28 13:21:00,78.7,72.7,29.52,South,170,17.3,17.3,82,0.00,BKN,,0.01,WeatherDisplay:10.37,2013-06-28 17:21:00,
2013-06-28 13:26:00,78.6,72.6,29.52,South,169,18.4,18.4,82,0.00,BKN,,0.01,WeatherDisplay:10.37,2013-06-28 17:26:00,
2013-06-28 13:32:00,79.1,72.8,29.52,South,184,13.8,13.8,81,0.00,BKN,,0.01,WeatherDisplay:10.37,2013-06-28 17:32:00,
2013-06-28 13:37:00,78.8,72.5,29.52,South,169,16.1,16.1,81,0.00,BKN,,0.01,WeatherDisplay:10.37,2013-06-28 17:37:00,
2013-06-28 13:42:00,78.8,72.5,29.51,SSW,196,19.6,19.6,81,0.00,BKN,,0.01,WeatherDisplay:10.37,2013-06-28 17:42:00,
2013-06-28 13:47:00,78.6,72.6,29.51,SSE,157,19.6,19.6,82,0.00,BKN,,0.01,WeatherDisplay:10.37,2013-06-28 17:47:00,
2013-06-28 13:52:00,78.0,72.8,29.51,SSE,160,16.1,16.1,84,0.00,BKN,,0.01,WeatherDisplay:10.37,2013-06-28 17:52:00,
2013-06-28 13:57:00,78.5,72.9,29.51,SSW,209,19.6,19.6,83,0.00,BKN,,0.01,WeatherDisplay:10.37,2013-06-28 17:57:00,
2013-06-28 14:03:00,78.9,72.9,29.51,South,173,16.1,16.1,82,0.00,BKN,,0.01,WeatherDisplay:10.37,2013-06-28 18:03:00,
2013-06-28 14:08:00,78.9,72.6,29.51,South,188,15.0,15.0,81,0.00,BKN,,0.01,WeatherDisplay:10.37,2013-06-28 18:08:00,
2013-06-28 14:13:00,79.3,73.3,29.51,SSW,203,11.5,11.5,82,0.00,BKN,,0.01,WeatherDisplay:10.37,2013-06-28 18:13:00,
2013-06-28 14:18:00,79.5,73.2,29.51,SSW,192,17.3,17.3,81,0.00,BKN,,0.01,WeatherDisplay:10.37,2013-06-28 18:18:00,
2013-06-28 14:23:00,79.5,72.8,29.50,South,175,20.7,20.7,80,0.00,BKN,,0.01,WeatherDisplay:10.37,2013-06-28 18:23:00,
2013-06-28 14:28:00,79.7,73.0,29.50,SW,227,17.3,17.3,80,0.00,BKN,,0.01,WeatherDisplay:10.37,2013-06-28 18:28:00,
2013-06-28 14:33:00,80.1,73.0,29.51,South,171,17.3,17.3,79,0.00,BKN,,0.01,WeatherDisplay:10.37,2013-06-28 18:33:00,
2013-06-28 14:38:00,80.2,73.5,29.51,WSW,238,13.8,13.8,80,0.00,BKN,,0.01,WeatherDisplay:10.37,2013-06-28 18:38:00,
2013-06-28 14:44:00,80.1,73.4,29.50,South,178,15.0,15.0,80,0.00,BKN,,0.01,WeatherDisplay:10.37,2013-06-28 18:44:00,
2013-06-28 14:49:00,79.7,73.0,29.51,SSW,210,18.4,18.4,80,0.00,BKN,,0.01,WeatherDisplay:10.37,2013-06-28 18:49:00,
2013-06-28 14:54:00,79.3,72.2,29.50,South,188,17.3,17.3,79,0.00,BKN,,0.01,WeatherDisplay:10.37,2013-06-28 18:54:00,
2013-06-28 14:59:00,79.2,72.5,29.50,South,186,17.3,17.3,80,0.00,BKN,,0.01,WeatherDisplay:10.37,2013-06-28 18:59:00,
2013-06-28 15:04:00,79.4,72.7,29.50,South,188,16.1,16.1,80,0.00,BKN,,0.01,WeatherDisplay:10.37,2013-06-28 19:04:00,
2013-06-28 15:09:00,79.5,72.8,29.50,South,182,15.0,15.0,80,0.00,BKN,,0.01,WeatherDisplay:10.37,2013-06-28 19:09:00,
2013-06-28 15:14:00,79.8,73.1,29.50,South,188,13.8,13.8,80,0.00,BKN,,0.01,WeatherDisplay:10.37,2013-06-28 19:14:00,
2013-06-28 15:19:00,79.7,72.6,29.50,SSE,155,20.0,20.0,79,0.00,BKN,,0.01,WeatherDisplay:10.37,2013-06-28 19:19:00,
2013-06-28 15:24:00,79.3,73.0,29.50,SSW,198,11.5,11.5,81,0.00,BKN,,0.01,WeatherDisplay:10.37,2013-06-28 19:24:00,
2013-06-28 15:30:00,79.4,72.7,29.50,SSE,161,13.8,13.8,80,0.00,BKN,,0.01,WeatherDisplay:10.37,2013-06-28 19:30:00,
2013-06-28 15:35:00,79.1,72.8,29.50,South,171,19.6,19.6,81,0.00,BKN,,0.01,WeatherDisplay:10.37,2013-06-28 19:35:00,
2013-06-28 15:40:00,78.0,72.4,29.50,South,184,23.0,23.0,83,0.00,BKN,,0.01,WeatherDisplay:10.37,2013-06-28 19:40:00,
2013-06-28 15:45:00,78.2,73.0,29.50,SW,218,11.5,11.5,84,0.00,BKN,,0.01,WeatherDisplay:10.37,2013-06-28 19:45:00,
2013-06-28 15:50:00,78.2,73.3,29.50,SSE,165,15.0,15.0,85,0.00,BKN,,0.01,WeatherDisplay:10.37,2013-06-28 19:50:00,
2013-06-28 15:55:00,77.7,72.8,29.50,SW,215,17.3,17.3,85,0.00,BKN,,0.01,WeatherDisplay:10.37,2013-06-28 19:55:00,
2013-06-28 16:01:00,77.4,72.9,29.50,South,180,15.0,15.0,86,0.00,SCT,,0.01,WeatherDisplay:10.37,2013-06-28 20:01:00,
2013-06-28 16:06:00,77.4,72.9,29.50,South,178,11.5,11.5,86,0.00,SCT,,0.01,WeatherDisplay:10.37,2013-06-28 20:06:00,
2013-06-28 16:11:00,77.3,72.8,29.50,South,173,17.3,17.3,86,0.00,SCT,,0.01,WeatherDisplay:10.37,2013-06-28 20:11:00,
2013-06-28 16:16:00,77.8,72.9,29.50,South,190,12.7,12.7,85,0.00,SCT,,0.01,WeatherDisplay:10.37,2013-06-28 20:16:00,
2013-06-28 16:21:00,78.2,73.0,29.49,South,184,19.6,19.6,84,0.00,SCT,,0.01,WeatherDisplay:10.37,2013-06-28 20:21:00,
2013-06-28 16:26:00,78.3,73.1,29.49,SSE,164,17.3,17.3,84,0.00,SCT,,0.01,WeatherDisplay:10.37,2013-06-28 20:26:00,
2013-06-28 16:31:00,78.2,73.0,29.49,SSW,205,19.6,19.6,84,0.00,SCT,,0.01,WeatherDisplay:10.37,2013-06-28 20:31:00,
2013-06-28 16:37:00,78.2,73.0,29.49,South,182,19.6,19.6,84,0.00,SCT,,0.01,WeatherDisplay:10.37,2013-06-28 20:37:00,
2013-06-28 16:42:00,78.2,73.0,29.50,SSE,164,17.3,17.3,84,0.00,SCT,,0.01,WeatherDisplay:10.37,2013-06-28 20:42:00,
2013-06-28 16:47:00,78.8,73.6,29.50,SSE,167,10.4,10.4,84,0.00,SCT,,0.01,WeatherDisplay:10.37,2013-06-28 20:47:00,
2013-06-28 16:52:00,78.7,73.5,29.50,SSW,194,11.5,11.5,84,0.00,SCT,,0.01,WeatherDisplay:10.37,2013-06-28 20:52:00,
2013-06-28 16:57:00,78.9,72.9,29.50,South,183,12.7,12.7,82,0.00,SCT,,0.01,WeatherDisplay:10.37,2013-06-28 20:57:00,
2013-06-28 17:02:00,78.5,72.5,29.50,South,187,20.7,20.7,82,0.00,CLR,,0.01,WeatherDisplay:10.37,2013-06-28 21:02:00,
2013-06-28 17:08:00,78.6,73.0,29.50,South,169,16.1,16.1,83,0.00,CLR,,0.01,WeatherDisplay:10.37,2013-06-28 21:08:00,
2013-06-28 17:13:00,78.5,72.5,29.50,SSW,213,18.4,18.4,82,0.00,CLR,,0.01,WeatherDisplay:10.37,2013-06-28 21:13:00,
2013-06-28 17:18:00,78.9,72.9,29.50,SW,215,11.5,11.5,82,0.00,CLR,,0.01,WeatherDisplay:10.37,2013-06-28 21:18:00,
2013-06-28 17:23:00,78.9,72.9,29.50,South,175,16.1,16.1,82,0.00,CLR,,0.01,WeatherDisplay:10.37,2013-06-28 21:23:00,
2013-06-28 17:28:00,78.8,72.8,29.50,South,188,11.5,11.5,82,0.00,CLR,,0.01,WeatherDisplay:10.37,2013-06-28 21:28:00,
2013-06-28 17:33:00,78.6,73.0,29.50,South,180,13.8,13.8,83,0.00,CLR,,0.01,WeatherDisplay:10.37,2013-06-28 21:33:00,
2013-06-28 17:39:00,78.8,73.2,29.50,South,171,16.0,16.0,83,0.00,CLR,,0.01,WeatherDisplay:10.37,2013-06-28 21:39:00,
2013-06-28 17:44:00,78.6,72.6,29.50,South,184,21.0,21.0,82,0.00,CLR,,0.01,WeatherDisplay:10.37,2013-06-28 21:44:00,
2013-06-28 17:49:00,78.8,72.8,29.50,SSE,165,10.4,10.4,82,0.00,CLR,,0.01,WeatherDisplay:10.37,2013-06-28 21:49:00,
2013-06-28 17:54:00,78.9,72.9,29.50,SW,215,18.0,18.0,82,0.00,CLR,,0.01,WeatherDisplay:10.37,2013-06-28 21:54:00,
2013-06-28 17:59:00,78.7,72.7,29.50,South,186,17.0,17.0,82,0.00,CLR,,0.01,WeatherDisplay:10.37,2013-06-28 21:59:00,
2013-06-28 18:04:00,78.4,72.4,29.50,South,187,15.0,15.0,82,0.00,SCT,,0.01,WeatherDisplay:10.37,2013-06-28 22:04:00,
2013-06-28 18:10:00,78.2,72.6,29.49,South,175,12.7,12.7,83,0.00,SCT,,0.01,WeatherDisplay:10.37,2013-06-28 22:10:00,
2013-06-28 18:15:00,78.0,72.4,29.49,South,183,8.0,18.0,83,0.00,SCT,,0.01,WeatherDisplay:10.37,2013-06-28 22:15:00,
2013-06-28 18:20:00,78.1,72.5,29.49,South,188,8.0,8.0,83,0.00,SCT,,0.01,WeatherDisplay:10.37,2013-06-28 22:20:00,
2013-06-28 18:25:00,78.1,72.2,29.49,SW,225,15.0,15.0,82,0.00,SCT,,0.01,WeatherDisplay:10.37,2013-06-28 22:25:00,
2013-06-28 18:30:00,78.3,72.0,29.49,SW,215,12.7,12.7,81,0.00,SCT,,0.01,WeatherDisplay:10.37,2013-06-28 22:30:00,
2013-06-28 18:36:00,78.1,71.8,29.49,South,186,10.4,10.4,81,0.00,SCT,,0.01,WeatherDisplay:10.37,2013-06-28 22:36:00,
2013-06-28 18:41:00,77.9,72.0,29.49,South,179,9.2,9.2,82,0.00,SCT,,0.01,WeatherDisplay:10.37,2013-06-28 22:41:00,
2013-06-28 18:46:00,77.6,71.7,29.49,South,183,11.5,11.5,82,0.00,SCT,,0.01,WeatherDisplay:10.37,2013-06-28 22:46:00,
2013-06-28 18:51:00,77.4,71.5,29.50,South,170,8.1,8.1,82,0.00,SCT,,0.01,WeatherDisplay:10.37,2013-06-28 22:51:00,
2013-06-28 18:56:00,77.1,71.2,29.50,South,188,11.5,11.5,82,0.00,SCT,,0.01,WeatherDisplay:10.37,2013-06-28 22:56:00,
2013-06-28 19:01:00,76.8,70.9,29.50,SSW,200,12.7,12.7,82,0.00,SCT,,0.01,WeatherDisplay:10.37,2013-06-28 23:01:00,
2013-06-28 19:07:00,76.6,71.0,29.49,South,169,6.0,6.0,83,0.00,SCT,,0.01,WeatherDisplay:10.37,2013-06-28 23:07:00,
2013-06-28 19:12:00,76.4,71.2,29.50,SSW,200,9.0,9.0,84,0.00,SCT,,0.01,WeatherDisplay:10.37,2013-06-28 23:12:00,
2013-06-28 19:17:00,76.1,70.9,29.50,SSW,207,13.8,13.8,84,0.00,SCT,,0.01,WeatherDisplay:10.37,2013-06-28 23:17:00,
2013-06-28 19:22:00,75.9,71.1,29.50,SSW,198,10.4,10.4,85,0.00,SCT,,0.01,WeatherDisplay:10.37,2013-06-28 23:22:00,
2013-06-28 19:27:00,75.7,71.2,29.50,SSW,203,6.9,6.9,86,0.00,SCT,,0.01,WeatherDisplay:10.37,2013-06-28 23:27:00,
2013-06-28 19:32:00,75.4,71.3,29.50,SSW,199,9.2,9.2,87,0.00,SCT,,0.01,WeatherDisplay:10.37,2013-06-28 23:32:00,
2013-06-28 19:38:00,75.1,71.0,29.50,South,185,10.0,10.0,87,0.00,SCT,,0.01,WeatherDisplay:10.37,2013-06-28 23:38:00,
2013-06-28 19:43:00,74.9,71.1,29.50,South,184,5.8,5.8,88,0.00,SCT,,0.01,WeatherDisplay:10.37,2013-06-28 23:43:00,
2013-06-28 19:48:00,74.7,71.2,29.50,SSW,199,8.1,8.1,89,0.00,SCT,,0.01,WeatherDisplay:10.37,2013-06-28 23:48:00,
2013-06-28 19:53:00,74.6,71.1,29.50,South,191,5.8,5.8,89,0.00,SCT,,0.01,WeatherDisplay:10.37,2013-06-28 23:53:00,
2013-06-28 19:58:00,74.5,71.0,29.50,South,174,8.1,8.1,89,0.00,SCT,,0.01,WeatherDisplay:10.37,2013-06-28 23:58:00,
2013-06-28 20:03:00,74.3,71.2,29.50,South,190,8.1,8.1,90,0.00,BKN,,0.01,WeatherDisplay:10.37,2013-06-29 00:03:00,
2013-06-28 20:08:00,74.1,71.3,29.50,South,186,4.6,4.6,91,0.00,BKN,,0.01,WeatherDisplay:10.37,2013-06-29 00:08:00,
2013-06-28 20:13:00,74.0,71.2,29.50,SW,214,5.8,5.8,91,0.00,BKN,,0.01,WeatherDisplay:10.37,2013-06-29 00:13:00,
2013-06-28 20:18:00,73.8,71.0,29.51,SSE,166,8.1,8.1,91,0.00,BKN,,0.01,WeatherDisplay:10.37,2013-06-29 00:18:00,
2013-06-28 20:24:00,73.7,71.2,29.51,South,182,10.4,10.4,92,0.00,BKN,,0.01,WeatherDisplay:10.37,2013-06-29 00:24:00,
2013-06-28 20:29:00,73.4,70.9,29.52,South,169,6.9,6.9,92,0.00,BKN,,0.01,WeatherDisplay:10.37,2013-06-29 00:29:00,
2013-06-28 20:34:00,73.4,70.9,29.51,South,170,4.6,4.6,92,0.00,BKN,,0.01,WeatherDisplay:10.37,2013-06-29 00:34:00,
2013-06-28 20:39:00,73.4,70.9,29.51,South,173,10.4,10.4,92,0.00,BKN,,0.01,WeatherDisplay:10.37,2013-06-29 00:39:00,
2013-06-28 20:44:00,73.4,70.9,29.51,SSE,152,9.2,9.2,92,0.00,BKN,,0.01,WeatherDisplay:10.37,2013-06-29 00:44:00,
2013-06-28 20:49:00,73.3,71.2,29.52,SSE,167,6.9,6.9,93,0.00,BKN,,0.01,WeatherDisplay:10.37,2013-06-29 00:49:00,
2013-06-28 20:54:00,73.1,71.0,29.52,South,169,6.9,6.9,93,0.00,BKN,,0.01,WeatherDisplay:10.37,2013-06-29 00:54:00,
2013-06-28 21:00:00,73.0,70.9,29.52,SSE,164,3.0,10.0,93,0.00,BKN,,0.01,WeatherDisplay:10.37,2013-06-29 01:00:00,
2013-06-28 21:05:00,73.0,70.9,29.52,SSE,159,6.9,6.9,93,0.00,BKN,,0.01,WeatherDisplay:10.37,2013-06-29 01:05:00,
2013-06-28 21:10:00,73.0,70.9,29.53,SSE,161,9.2,9.2,93,0.00,BKN,,0.01,WeatherDisplay:10.37,2013-06-29 01:10:00,
2013-06-28 21:15:00,73.0,71.2,29.53,SSE,150,9.2,9.2,94,0.00,BKN,,0.01,WeatherDisplay:10.37,2013-06-29 01:15:00,
2013-06-28 21:20:00,72.9,71.1,29.54,SSE,162,6.0,6.0,94,0.00,BKN,,0.01,WeatherDisplay:10.37,2013-06-29 01:20:00,
2013-06-28 21:25:00,73.0,71.2,29.54,SSE,164,6.9,6.9,94,0.00,BKN,,0.01,WeatherDisplay:10.37,2013-06-29 01:25:00,
2013-06-28 21:30:00,73.1,71.3,29.54,SSE,161,8.1,8.1,94,0.00,BKN,,0.01,WeatherDisplay:10.37,2013-06-29 01:30:00,
2013-06-28 21:36:00,73.0,71.2,29.54,SSE,147,8.1,8.1,94,0.00,BKN,,0.01,WeatherDisplay:10.37,2013-06-29 01:36:00,
2013-06-28 21:41:00,73.0,71.2,29.54,SSE,152,10.4,10.4,94,0.00,BKN,,0.01,WeatherDisplay:10.37,2013-06-29 01:41:00,
2013-06-28 21:46:00,73.0,71.2,29.54,SSE,160,7.0,7.0,94,0.00,BKN,,0.01,WeatherDisplay:10.37,2013-06-29 01:46:00,
2013-06-28 21:51:00,73.2,71.4,29.54,South,184,6.9,6.9,94,0.00,BKN,,0.01,WeatherDisplay:10.37,2013-06-29 01:51:00,
2013-06-28 21:56:00,73.1,71.3,29.54,SSE,158,8.0,8.0,94,0.00,BKN,,0.01,WeatherDisplay:10.37,2013-06-29 01:56:00,
2013-06-28 22:01:00,73.1,71.3,29.53,SSW,192,10.4,10.4,94,0.00,OVC,,0.01,WeatherDisplay:10.37,2013-06-29 02:01:00,
2013-06-28 22:06:00,73.0,71.2,29.53,South,180,9.2,9.2,94,0.00,OVC,,0.01,WeatherDisplay:10.37,2013-06-29 02:06:00,
2013-06-28 22:11:00,73.1,71.3,29.53,South,176,9.2,9.2,94,0.00,OVC,,0.01,WeatherDisplay:10.37,2013-06-29 02:11:00,
2013-06-28 22:17:00,73.1,71.3,29.53,SSE,154,10.4,10.4,94,0.00,OVC,,0.01,WeatherDisplay:10.37,2013-06-29 02:17:00,
2013-06-28 22:22:00,73.1,71.6,29.52,South,179,8.1,8.1,95,0.00,OVC,,0.01,WeatherDisplay:10.37,2013-06-29 02:22:00,
2013-06-28 22:27:00,73.1,71.6,29.53,SSW,206,8.1,8.1,95,0.00,OVC,,0.01,WeatherDisplay:10.37,2013-06-29 02:27:00,
2013-06-28 22:32:00,73.1,71.6,29.54,South,180,9.2,9.2,95,0.00,OVC,,0.01,WeatherDisplay:10.37,2013-06-29 02:32:00,
2013-06-28 22:37:00,73.1,71.6,29.53,South,169,8.1,8.1,95,0.00,OVC,,0.01,WeatherDisplay:10.37,2013-06-29 02:37:00,
2013-06-28 22:43:00,73.0,71.5,29.53,SSW,199,9.2,9.2,95,0.00,OVC,,0.01,WeatherDisplay:10.37,2013-06-29 02:43:00,
2013-06-28 22:48:00,73.0,71.5,29.53,South,184,5.0,5.0,95,0.00,OVC,,0.01,WeatherDisplay:10.37,2013-06-29 02:48:00,
2013-06-28 22:53:00,72.9,71.4,29.52,SW,216,4.6,4.6,95,0.00,OVC,,0.01,WeatherDisplay:10.37,2013-06-29 02:53:00,
2013-06-28 22:58:00,72.9,71.4,29.52,South,182,5.8,5.8,95,0.00,OVC,,0.01,WeatherDisplay:10.37,2013-06-29 02:58:00,
2013-06-28 23:03:00,73.1,71.6,29.53,South,183,4.6,4.6,95,0.00,BKN,,0.01,WeatherDisplay:10.37,2013-06-29 03:03:00,
2013-06-28 23:08:00,73.2,71.7,29.52,South,171,7.0,7.0,95,0.00,BKN,,0.01,WeatherDisplay:10.37,2013-06-29 03:08:00,
2013-06-28 23:13:00,73.2,71.7,29.53,SSE,152,6.9,6.9,95,0.00,BKN,,0.01,WeatherDisplay:10.37,2013-06-29 03:13:00,
2013-06-28 23:19:00,73.1,71.6,29.53,South,169,4.6,4.6,95,0.00,BKN,,0.01,WeatherDisplay:10.37,2013-06-29 03:19:00,
2013-06-28 23:24:00,73.2,71.7,29.53,SW,234,9.2,9.2,95,0.00,BKN,,0.01,WeatherDisplay:10.37,2013-06-29 03:24:00,
2013-06-28 23:29:00,73.2,71.7,29.53,South,190,3.5,3.5,95,0.00,BKN,,0.01,WeatherDisplay:10.37,2013-06-29 03:29:00,
2013-06-28 23:34:00,73.3,71.8,29.53,South,176,6.9,6.9,95,0.00,BKN,,0.01,WeatherDisplay:10.37,2013-06-29 03:34:00,
2013-06-28 23:39:00,73.4,71.9,29.53,South,170,8.1,8.1,95,0.00,BKN,,0.01,WeatherDisplay:10.37,2013-06-29 03:39:00,
2013-06-28 23:44:00,73.5,72.0,29.53,SSE,157,8.1,8.1,95,0.00,BKN,,0.01,WeatherDisplay:10.37,2013-06-29 03:44:00,
2013-06-28 23:50:00,73.4,71.6,29.53,SE,140,9.2,9.2,94,0.00,BKN,,0.01,WeatherDisplay:10.37,2013-06-29 03:50:00,
2013-06-28 23:55:00,73.5,71.7,29.53,SSE,148,11.5,11.5,94,0.00,BKN,,0.01,WeatherDisplay:10.37,2013-06-29 03:55:00,